Time;durP1;ratioP1;P1;durP2;ratioP2;P2;SDS_P1;SDS_P2;PMS_P1;PMS_P2;Temp;Humidity;BMP_temperature;BMP_pressure;BME280_temperature;BME280_humidity;BME280_pressure;Samples;Min_cycle;Max_cycle;Signal;HPM_P1;HPM_P2
2023/07/26 00:01:29;;;;;;;46.72;37.30;;;;;;;29.00;100.00;97777.69;4843297;29;20065;-65
2023/07/26 00:03:58;;;;;;;49.22;36.47;;;;;;;28.99;100.00;97776.09;4842540;29;20058;-65
2023/07/26 00:06:30;;;;;;;46.45;38.45;;;;;;;28.97;100.00;97772.91;4829491;29;20073;-65
2023/07/26 00:09:00;;;;;;;50.33;39.40;;;;;;;29.01;100.00;97771.13;4839185;29;20073;-66
2023/07/26 00:11:30;;;;;;;51.25;39.28;;;;;;;29.07;100.00;97775.25;4841962;29;20140;-66
2023/07/26 00:13:59;;;;;;;49.55;38.83;;;;;;;29.03;100.00;97780.53;4829806;29;20565;-65
2023/07/26 00:16:30;;;;;;;50.38;39.65;;;;;;;29.04;100.00;97770.44;4818471;29;20489;-66
2023/07/26 00:19:00;;;;;;;49.45;38.55;;;;;;;29.02;100.00;97770.78;4843167;29;20096;-66
2023/07/26 00:21:30;;;;;;;47.80;37.40;;;;;;;29.05;100.00;97779.41;4840167;29;20600;-65
2023/07/26 00:23:59;;;;;;;52.30;38.90;;;;;;;29.06;100.00;97776.38;4829698;29;20486;-66
2023/07/26 00:26:28;;;;;;;52.60;39.55;;;;;;;29.04;100.00;97775.91;4827511;29;20499;-65
2023/07/26 00:28:58;;;;;;;49.08;38.22;;;;;;;29.03;100.00;97777.81;4843346;29;20052;-65
2023/07/26 00:31:31;;;;;;;50.40;38.25;;;;;;;29.04;100.00;97778.63;4831551;29;20057;-65
2023/07/26 00:34:02;;;;;;;50.90;37.22;;;;;;;29.02;100.00;97784.44;4833309;29;20165;-66
2023/07/26 00:36:31;;;;;;;47.63;36.30;;;;;;;29.01;100.00;97787.47;4820642;29;20082;-65
2023/07/26 00:39:03;;;;;;;46.17;36.08;;;;;;;28.98;100.00;97791.69;4837202;29;20068;-66
2023/07/26 00:41:32;;;;;;;45.20;36.75;;;;;;;28.95;100.00;97795.06;4824338;29;20494;-65
2023/07/26 00:44:01;;;;;;;44.47;35.42;;;;;;;28.98;100.00;97785.44;4833176;29;20126;-67
2023/07/26 00:46:31;;;;;;;44.22;35.75;;;;;;;28.89;100.00;97781.97;4832932;29;20041;-65
2023/07/26 00:49:01;;;;;;;44.95;36.90;;;;;;;28.92;100.00;97797.66;4845004;29;20788;-65
2023/07/26 00:51:34;;;;;;;44.95;35.58;;;;;;;28.89;100.00;97807.31;4837444;29;20054;-64
2023/07/26 00:54:05;;;;;;;46.13;35.08;;;;;;;28.89;100.00;97810.03;4823733;29;20712;-65
2023/07/26 00:56:35;;;;;;;46.20;34.67;;;;;;;28.85;100.00;97814.56;4840927;29;20050;-66
2023/07/26 00:59:05;;;;;;;41.45;33.65;;;;;;;28.87;100.00;97817.75;4820571;29;20065;-65
2023/07/26 01:01:35;;;;;;;42.15;33.70;;;;;;;28.82;100.00;97826.13;4829996;29;20056;-65
2023/07/26 01:04:06;;;;;;;43.67;32.88;;;;;;;28.75;100.00;97830.50;4849762;29;20113;-65
2023/07/26 01:07:01;;;;;;;39.10;31.42;;;;;;;28.69;100.00;97843.50;4831351;29;20046;-64
2023/07/26 01:09:35;;;;;;;37.67;30.05;;;;;;;28.77;100.00;97842.66;4849578;29;20065;-65
2023/07/26 01:12:29;;;;;;;38.83;28.23;;;;;;;28.79;100.00;97845.06;4818253;29;20140;-65
2023/07/26 01:15:02;;;;;;;37.00;27.23;;;;;;;28.78;100.00;97855.19;4833868;29;20069;-66
2023/07/26 01:17:32;;;;;;;30.67;23.27;;;;;;;28.64;100.00;97851.88;4829902;29;20592;-65
2023/07/26 01:20:02;;;;;;;28.67;20.42;;;;;;;28.54;100.00;97849.56;4846610;29;20062;-65
2023/07/26 01:22:32;;;;;;;23.42;18.02;;;;;;;28.65;100.00;97852.66;4813011;29;20093;-65
2023/07/26 01:25:02;;;;;;;20.42;15.95;;;;;;;28.65;100.00;97856.19;4817988;29;20057;-66
2023/07/26 01:27:31;;;;;;;21.05;16.17;;;;;;;28.65;100.00;97855.41;4837810;29;20118;-66
2023/07/26 01:30:01;;;;;;;19.08;15.10;;;;;;;28.64;100.00;97853.78;4828060;29;20060;-66
2023/07/26 01:32:33;;;;;;;15.63;13.05;;;;;;;28.62;100.00;97861.50;4836036;29;20061;-66
2023/07/26 01:35:04;;;;;;;15.38;12.80;;;;;;;28.55;100.00;97859.28;4821817;29;20060;-66
2023/07/26 01:37:37;;;;;;;16.00;11.27;;;;;;;28.64;100.00;97861.97;4836908;29;20439;-66
2023/07/26 01:40:07;;;;;;;16.45;11.38;;;;;;;28.63;100.00;97874.81;4829822;29;20049;-66
2023/07/26 01:42:37;;;;;;;10.95;9.60;;;;;;;28.49;100.00;97876.97;4842414;29;20498;-66
2023/07/26 01:45:09;;;;;;;10.63;9.52;;;;;;;28.50;100.00;97878.59;4830292;29;20069;-66
2023/07/26 01:47:38;;;;;;;11.57;9.15;;;;;;;28.56;100.00;97875.31;4817818;29;20053;-66
2023/07/26 01:50:08;;;;;;;10.27;9.20;;;;;;;28.59;100.00;97877.38;4834207;29;20054;-66
2023/07/26 01:52:38;;;;;;;11.43;9.68;;;;;;;28.54;100.00;97872.16;4834761;29;20067;-66
2023/07/26 01:55:07;;;;;;;9.93;8.90;;;;;;;28.53;100.00;97884.16;4844835;29;20054;-66
2023/07/26 01:57:37;;;;;;;11.60;9.15;;;;;;;28.43;100.00;97889.97;4835922;29;20069;-66
2023/07/26 02:00:07;;;;;;;10.93;8.25;;;;;;;28.38;100.00;97887.44;4814161;29;20780;-66
2023/07/26 02:02:39;;;;;;;;;;;;;;;28.45;100.00;97882.28;4847434;29;20058;-66
2023/07/26 02:05:08;;;;;;;10.70;9.00;;;;;;;28.45;100.00;97884.22;4822055;29;19939;-66
2023/07/26 02:07:38;;;;;;;10.57;9.35;;;;;;;28.55;100.00;97884.63;4818318;29;20149;-66
2023/07/26 02:10:07;;;;;;;10.60;9.38;;;;;;;28.53;100.00;97884.16;4835046;29;20865;-65
2023/07/26 02:12:37;;;;;;;14.13;9.63;;;;;;;28.50;100.00;97887.53;4837097;29;20053;-66
2023/07/26 02:15:08;;;;;;;11.15;9.50;;;;;;;28.59;100.00;97896.47;4818792;29;20068;-67
2023/07/26 02:17:38;;;;;;;10.80;9.15;;;;;;;28.69;100.00;97897.22;4847595;29;20057;-66
2023/07/26 02:20:08;;;;;;;13.00;9.38;;;;;;;28.73;100.00;97898.97;4828214;29;20049;-66
2023/07/26 02:22:37;;;;;;;13.73;10.20;;;;;;;28.69;100.00;97897.22;4837380;29;20050;-67
2023/07/26 02:25:06;;;;;;;15.70;10.73;;;;;;;28.76;100.00;97894.81;4813795;29;20077;-67
2023/07/26 02:27:36;;;;;;;14.05;10.18;;;;;;;28.80;100.00;97910.16;4831689;29;20145;-66
2023/07/26 02:30:07;;;;;;;12.82;10.45;;;;;;;29.09;100.00;97912.03;4835295;29;20061;-67
2023/07/26 02:32:36;;;;;;;10.90;9.80;;;;;;;29.15;100.00;97910.72;4833838;29;20057;-66
2023/07/26 02:35:06;;;;;;;11.23;10.13;;;;;;;29.34;100.00;97924.69;4830945;29;20073;-67
2023/07/26 02:37:35;;;;;;;11.00;9.43;;;;;;;29.27;100.00;97929.88;4826932;29;20049;-67
2023/07/26 02:40:05;;;;;;;12.98;10.85;;;;;;;29.28;100.00;97922.50;4843416;29;20144;-67
2023/07/26 02:42:34;;;;;;;10.73;9.60;;;;;;;29.54;100.00;97925.03;4843116;29;20065;-66
2023/07/26 02:45:04;;;;;;;11.35;10.25;;;;;;;29.69;100.00;97930.69;4843315;29;20126;-68
2023/07/26 02:47:34;;;;;;;12.65;9.30;;;;;;;29.89;100.00;97934.50;4829322;29;20058;-67
2023/07/26 02:50:04;;;;;;;11.70;10.50;;;;;;;29.90;100.00;97938.84;4842976;29;20058;-67
2023/07/26 02:52:34;;;;;;;10.60;9.60;;;;;;;30.17;100.00;97938.22;4835988;29;20073;-67
2023/07/26 02:55:04;;;;;;;12.07;10.07;;;;;;;30.26;100.00;97938.13;4835417;29;20060;-66
2023/07/26 02:57:33;;;;;;;10.98;9.82;;;;;;;30.53;100.00;97931.22;4835138;29;20494;-66
2023/07/26 03:00:03;;;;;;;15.90;10.85;;;;;;;30.33;100.00;97939.16;4849854;29;20060;-67
2023/07/26 03:02:32;;;;;;;13.80;11.57;;;;;;;30.15;100.00;97937.75;4826748;29;21255;-67
2023/07/26 03:05:02;;;;;;;12.52;11.23;;;;;;;30.00;100.00;97937.63;4823220;29;20081;-66
2023/07/26 03:07:31;;;;;;;11.98;10.75;;;;;;;30.08;100.00;97934.78;4838861;29;20069;-66
2023/07/26 03:10:00;;;;;;;14.10;11.68;;;;;;;30.06;100.00;97939.78;4836620;29;20061;-67
2023/07/26 03:12:30;;;;;;;14.25;11.55;;;;;;;30.11;100.00;97933.31;4834094;29;20061;-66
2023/07/26 03:15:00;;;;;;;13.27;11.48;;;;;;;30.22;100.00;97940.75;4822365;29;20049;-66
2023/07/26 03:17:30;;;;;;;12.80;11.48;;;;;;;30.12;100.00;97932.97;4814958;29;20136;-66
2023/07/26 03:19:59;;;;;;;12.27;11.07;;;;;;;30.18;100.00;97937.06;4823525;29;20537;-66
2023/07/26 03:22:28;;;;;;;11.68;10.55;;;;;;;30.28;100.00;97944.03;4833937;29;20061;-68
2023/07/26 03:24:58;;;;;;;11.63;10.18;;;;;;;30.56;100.00;97949.66;4828369;29;20539;-66
2023/07/26 03:27:28;;;;;;;12.93;10.95;;;;;;;30.54;100.00;97960.13;4829736;29;20077;-68
2023/07/26 03:29:58;;;;;;;12.40;11.10;;;;;;;30.69;100.00;97954.00;4827768;29;20057;-66
2023/07/26 03:32:27;;;;;;;12.48;11.20;;;;;;;30.43;100.00;97954.31;4833418;29;20072;-66
2023/07/26 03:34:57;;;;;;;14.93;11.40;;;;;;;30.33;100.00;97969.22;4841881;29;20482;-66
2023/07/26 03:37:26;;;;;;;11.57;10.48;;;;;;;30.39;100.00;97958.84;4832783;29;20065;-66
2023/07/26 03:39:56;;;;;;;13.63;11.25;;;;;;;30.30;100.00;97961.69;4825699;29;20136;-66
2023/07/26 03:42:25;;;;;;;13.55;12.10;;;;;;;30.28;100.00;97963.16;4826446;29;20050;-68
2023/07/26 03:44:55;;;;;;;16.55;11.63;;;;;;;30.27;100.00;97959.63;4819523;29;20041;-67
2023/07/26 03:47:24;;;;;;;16.30;12.15;;;;;;;30.22;100.00;97957.13;4825597;29;20050;-66
2023/07/26 03:49:54;;;;;;;18.20;12.90;;;;;;;30.30;100.00;97953.50;4816041;29;20050;-67
2023/07/26 03:52:23;;;;;;;13.90;12.40;;;;;;;30.41;100.00;97951.09;4844512;29;20049;-68
2023/07/26 03:54:54;;;;;;;14.73;13.23;;;;;;;30.60;100.00;97951.38;4818651;29;20118;-67
2023/07/26 03:57:25;;;;;;;17.95;12.93;;;;;;;30.35;100.00;97957.94;4824504;29;20053;-67
2023/07/26 03:59:55;;;;;;;14.55;13.15;;;;;;;30.56;100.00;97964.13;4833973;29;20075;-66
2023/07/26 04:02:24;;;;;;;14.82;12.95;;;;;;;30.72;100.00;97956.03;4829776;29;20110;-66
2023/07/26 04:04:54;;;;;;;16.45;13.55;;;;;;;30.72;100.00;97950.56;4804719;29;20129;-66
2023/07/26 04:07:24;;;;;;;17.27;14.23;;;;;;;30.56;100.00;97963.34;4833612;29;20124;-66
2023/07/26 04:09:53;;;;;;;15.30;13.90;;;;;;;30.77;100.00;97953.09;4833301;29;20485;-66
2023/07/26 04:12:23;;;;;;;17.52;14.27;;;;;;;30.84;100.00;97958.78;4831585;29;20046;-65
2023/07/26 04:14:52;;;;;;;21.83;14.55;;;;;;;30.94;100.00;97958.31;4833174;29;20735;-65
2023/07/26 04:17:22;;;;;;;15.05;13.55;;;;;;;30.93;100.00;97962.22;4833003;29;20133;-66
2023/07/26 04:19:52;;;;;;;16.83;13.90;;;;;;;31.04;100.00;97962.56;4823213;29;20045;-66
2023/07/26 04:22:22;;;;;;;18.50;14.27;;;;;;;31.06;100.00;97966.56;4838468;29;20114;-66
2023/07/26 04:24:51;;;;;;;16.80;14.05;;;;;;;30.89;100.00;97965.97;4825444;29;20053;-65
2023/07/26 04:27:20;;;;;;;15.35;13.75;;;;;;;30.98;100.00;97964.69;4837558;29;20045;-66
2023/07/26 04:29:50;;;;;;;17.30;15.45;;;;;;;30.95;100.00;97965.38;4797740;29;20077;-67
2023/07/26 04:32:19;;;;;;;19.90;15.10;;;;;;;30.99;100.00;97974.50;4840416;29;20057;-64
2023/07/26 04:34:49;;;;;;;20.00;15.48;;;;;;;30.89;100.00;97971.44;4825258;29;20060;-64
2023/07/26 04:37:18;;;;;;;17.58;14.93;;;;;;;30.94;100.00;97960.25;4842333;29;20060;-66
2023/07/26 04:39:49;;;;;;;17.50;15.57;;;;;;;30.87;100.00;97968.25;4826046;29;20417;-66
2023/07/26 04:42:19;;;;;;;18.02;15.90;;;;;;;31.00;100.00;97959.72;4818862;29;20136;-66
2023/07/26 04:44:49;;;;;;;21.77;16.83;;;;;;;31.10;100.00;97966.66;4837748;29;20050;-68
2023/07/26 04:47:22;;;;;;;21.13;18.80;;;;;;;31.17;100.00;97962.19;4835020;29;20048;-66
2023/07/26 04:49:52;;;;;;;22.23;20.02;;;;;;;31.42;100.00;97962.94;4831818;29;20599;-65
2023/07/26 04:52:23;;;;;;;24.48;21.95;;;;;;;31.44;100.00;97970.78;4816614;29;20318;-65
2023/07/26 04:54:53;;;;;;;22.45;20.25;;;;;;;31.45;100.00;97962.25;4834813;29;20050;-65
2023/07/26 04:57:22;;;;;;;24.75;22.13;;;;;;;31.59;100.00;97968.16;4819459;29;20153;-65
2023/07/26 04:59:51;;;;;;;27.23;21.85;;;;;;;31.55;100.00;97966.47;4833246;29;20054;-64
2023/07/26 05:02:21;;;;;;;24.77;20.75;;;;;;;31.46;100.00;97965.78;4821204;29;20061;-65
2023/07/26 05:04:50;;;;;;;24.42;21.92;;;;;;;31.30;100.00;97957.47;4818609;29;20061;-66
2023/07/26 05:07:20;;;;;;;23.17;20.70;;;;;;;31.42;100.00;97962.13;4831767;29;20054;-65
2023/07/26 05:09:49;;;;;;;24.67;21.33;;;;;;;31.32;100.00;97963.41;4820182;29;20707;-67
2023/07/26 05:12:18;;;;;;;28.42;22.73;;;;;;;31.13;100.00;97966.75;4817951;29;20053;-67
2023/07/26 05:14:48;;;;;;;23.83;21.42;;;;;;;31.25;100.00;97971.41;4793591;29;20709;-66
2023/07/26 05:17:18;;;;;;;23.98;21.58;;;;;;;31.34;100.00;97965.78;4834586;29;20062;-67
2023/07/26 05:19:48;;;;;;;25.08;22.63;;;;;;;31.25;100.00;97973.38;4835697;29;20549;-67
2023/07/26 05:22:17;;;;;;;25.90;23.30;;;;;;;31.34;100.00;97960.31;4808648;29;20050;-67
2023/07/26 05:24:46;;;;;;;26.33;23.73;;;;;;;31.50;100.00;97955.72;4810021;29;20063;-68
2023/07/26 05:27:16;;;;;;;25.23;22.67;;;;;;;31.85;100.00;97964.16;4819321;29;20061;-67
2023/07/26 05:29:45;;;;;;;24.52;21.95;;;;;;;32.24;100.00;97951.53;4807716;29;20070;-67
2023/07/26 05:32:14;;;;;;;26.48;23.75;;;;;;;32.48;97.01;97954.91;4813576;29;20045;-68
2023/07/26 05:34:44;;;;;;;25.50;22.45;;;;;;;32.59;97.69;97952.41;4840710;29;20320;-69
2023/07/26 05:37:13;;;;;;;23.55;21.15;;;;;;;32.80;95.90;97954.91;4838974;29;20046;-69
2023/07/26 05:39:42;;;;;;;20.45;18.45;;;;;;;32.84;96.28;97955.81;4826427;29;20088;-69
2023/07/26 05:42:20;;;;;;;23.73;21.48;;;;;;;33.06;90.94;97954.34;4840163;29;20116;-69
2023/07/26 05:44:50;;;;;;;22.83;20.60;;;;;;;33.24;90.40;97947.28;4838832;29;20054;-66
2023/07/26 05:47:20;;;;;;;21.65;19.48;;;;;;;33.11;91.04;97951.28;4833726;29;20461;-67
2023/07/26 05:49:50;;;;;;;20.15;18.25;;;;;;;33.32;91.18;97946.31;4830650;29;20537;-68
2023/07/26 05:52:20;;;;;;;21.30;19.10;;;;;;;33.56;91.90;97942.47;4823720;29;20576;-67
2023/07/26 05:55:00;;;;;;;20.17;18.13;;;;;;;33.70;88.89;97949.09;4837504;29;20053;-66
2023/07/26 05:57:30;;;;;;;18.38;16.58;;;;;;;33.84;90.52;97949.38;4827000;29;20549;-66
2023/07/26 05:59:59;;;;;;;20.83;18.65;;;;;;;33.77;85.80;97951.16;4837530;29;20064;-67
2023/07/26 06:02:38;;;;;;;21.58;19.55;;;;;;;33.65;88.27;97938.34;4842476;29;20872;-66
2023/07/26 06:05:08;;;;;;;20.35;18.45;;;;;;;33.59;86.38;97945.28;4813898;29;20049;-67
2023/07/26 06:07:38;;;;;;;22.65;20.48;;;;;;;33.84;90.07;97946.63;4841901;29;20078;-67
2023/07/26 06:10:09;;;;;;;25.80;23.23;;;;;;;33.49;87.16;97939.59;4822647;29;20493;-68
2023/07/26 06:12:39;;;;;;;25.00;22.55;;;;;;;33.59;90.06;97934.31;4823775;29;20061;-66
2023/07/26 06:15:08;;;;;;;23.40;21.10;;;;;;;33.04;87.98;97935.47;4819655;29;20137;-67
2023/07/26 06:17:39;;;;;;;23.45;20.85;;;;;;;33.54;89.35;97931.88;4825241;29;20054;-65
2023/07/26 06:20:10;;;;;;;24.45;21.77;;;;;;;33.71;91.45;97942.44;4838695;29;20420;-67
2023/07/26 06:22:40;;;;;;;23.55;21.02;;;;;;;33.62;88.80;97936.34;4842352;29;20423;-68
2023/07/26 06:25:09;;;;;;;25.48;19.45;;;;;;;33.82;87.19;97940.69;4828733;29;20266;-65
2023/07/26 06:27:38;;;;;;;21.83;19.50;;;;;;;33.68;88.03;97945.88;4834168;29;20438;-66
2023/07/26 06:30:08;;;;;;;21.10;18.90;;;;;;;33.71;89.97;97936.16;4842639;29;20042;-66
2023/07/26 06:32:38;;;;;;;20.52;18.30;;;;;;;34.03;90.05;97934.00;4840378;29;20053;-66
2023/07/26 06:35:08;;;;;;;25.45;22.83;;;;;;;33.85;85.96;97939.16;4838428;29;20859;-66
2023/07/26 06:37:40;;;;;;;24.55;22.02;;;;;;;33.87;87.62;97936.03;4838522;29;20041;-66
2023/07/26 06:40:10;;;;;;;29.90;26.90;;;;;;;33.87;86.00;97930.53;4822498;29;20053;-67
2023/07/26 06:42:40;;;;;;;23.35;21.05;;;;;;;33.79;86.95;97927.69;4837980;29;20445;-68
2023/07/26 06:45:09;;;;;;;20.95;18.85;;;;;;;33.78;87.65;97928.03;4823949;29;20061;-68
2023/07/26 06:47:39;;;;;;;24.85;22.45;;;;;;;33.92;86.09;97917.31;4842005;29;20117;-66
2023/07/26 06:50:08;;;;;;;24.48;21.98;;;;;;;34.22;86.86;97925.72;4819068;29;20053;-65
2023/07/26 06:52:38;;;;;;;27.77;24.13;;;;;;;34.13;86.91;97922.38;4834022;29;20117;-67
2023/07/26 06:55:07;;;;;;;25.67;23.25;;;;;;;34.19;87.81;97921.75;4837207;29;20053;-68
2023/07/26 06:57:37;;;;;;;28.10;25.25;;;;;;;33.76;86.41;97909.19;4837825;29;20427;-69
2023/07/26 07:00:12;;;;;;;28.38;25.55;;;;;;;33.85;88.21;97906.19;4819958;29;20136;-66
2023/07/26 07:02:42;;;;;;;28.55;23.75;;;;;;;33.57;88.35;97911.91;4806729;29;20125;-66
2023/07/26 07:05:14;;;;;;;29.63;26.65;;;;;;;33.62;87.12;97914.38;4827998;29;20625;-66
2023/07/26 07:07:44;;;;;;;29.45;26.65;;;;;;;33.84;87.25;97910.91;4830830;29;20114;-67
2023/07/26 07:10:13;;;;;;;30.15;27.05;;;;;;;33.73;85.81;97912.63;4840956;29;20144;-66
2023/07/26 07:12:43;;;;;;;26.25;23.75;;;;;;;33.94;86.22;97912.25;4838772;29;20057;-67
2023/07/26 07:15:14;;;;;;;25.77;23.38;;;;;;;33.63;86.42;97904.97;4823390;29;20092;-67
2023/07/26 07:17:43;;;;;;;23.85;21.42;;;;;;;33.81;87.25;97906.09;4839991;29;20053;-69
2023/07/26 07:20:15;;;;;;;22.63;20.52;;;;;;;33.97;88.38;97907.97;4823977;29;20056;-66
2023/07/26 07:22:44;;;;;;;23.42;21.00;;;;;;;34.13;88.43;97908.63;4812870;29;20065;-68
2023/07/26 07:25:14;;;;;;;22.92;20.52;;;;;;;34.21;86.92;97908.44;4838315;29;20058;-66
2023/07/26 07:27:44;;;;;;;22.52;20.33;;;;;;;34.27;87.18;97914.41;4840215;29;20053;-65
2023/07/26 07:30:14;;;;;;;21.02;18.92;;;;;;;34.01;88.01;97903.34;4839157;29;20058;-65
2023/07/26 07:32:43;;;;;;;22.05;19.67;;;;;;;33.77;85.48;97899.75;4841248;29;20142;-65
2023/07/26 07:35:13;;;;;;;20.75;18.65;;;;;;;33.59;89.00;97903.31;4825534;29;20057;-66
2023/07/26 07:37:43;;;;;;;20.55;17.67;;;;;;;33.16;90.19;97896.94;4831758;29;20072;-64
2023/07/26 07:40:13;;;;;;;21.38;19.35;;;;;;;33.23;90.37;97893.56;4841388;29;20600;-64
2023/07/26 07:42:42;;;;;;;21.52;19.25;;;;;;;33.12;90.76;97892.50;4829305;29;20068;-64
2023/07/26 07:45:11;;;;;;;22.15;19.95;;;;;;;32.90;90.93;97892.03;4841447;29;20053;-62
2023/07/26 07:47:41;;;;;;;22.40;20.40;;;;;;;32.97;92.56;97880.44;4838857;29;20057;-65
2023/07/26 07:50:10;;;;;;;23.38;20.70;;;;;;;33.17;92.74;97875.78;4827194;29;20062;-64
2023/07/26 07:52:41;;;;;;;21.67;19.38;;;;;;;33.02;93.22;97871.91;4825785;29;20764;-64
2023/07/26 07:55:13;;;;;;;22.63;20.52;;;;;;;33.21;90.06;97876.66;4838813;29;20050;-65
2023/07/26 07:57:43;;;;;;;22.63;20.52;;;;;;;33.00;93.15;97870.69;4835258;29;20058;-65
2023/07/26 08:00:13;;;;;;;22.45;20.42;;;;;;;33.36;89.79;97868.34;4819901;29;20049;-65
2023/07/26 08:02:44;;;;;;;22.20;20.10;;;;;;;33.53;88.67;97869.06;4828291;29;20078;-65
2023/07/26 08:05:14;;;;;;;21.83;19.70;;;;;;;33.48;90.13;97867.41;4839105;29;20058;-65
2023/07/26 08:07:43;;;;;;;20.67;18.77;;;;;;;33.32;91.40;97859.25;4833477;29;20132;-64
2023/07/26 08:10:12;;;;;;;21.83;19.55;;;;;;;33.39;90.92;97858.59;4837852;29;20137;-64
2023/07/26 08:12:42;;;;;;;21.48;19.38;;;;;;;33.33;90.02;97840.81;4819741;29;20046;-64
2023/07/26 08:15:12;;;;;;;19.95;17.95;;;;;;;33.54;88.59;97838.50;4833542;29;20052;-66
2023/07/26 08:17:41;;;;;;;19.17;17.17;;;;;;;33.73;88.93;97838.47;4811215;29;20053;-64
2023/07/26 08:20:12;;;;;;;20.92;18.77;;;;;;;33.75;86.76;97836.16;4832408;29;20053;-64
2023/07/26 08:22:41;;;;;;;19.65;17.90;;;;;;;33.54;87.14;97827.50;4827653;29;20132;-65
2023/07/26 08:25:11;;;;;;;19.65;17.35;;;;;;;33.50;91.54;97815.66;4835463;29;20052;-64
2023/07/26 08:27:40;;;;;;;19.48;17.60;;;;;;;33.66;90.75;97815.56;4825664;29;20085;-64
2023/07/26 08:30:10;;;;;;;21.13;17.38;;;;;;;33.69;87.35;97817.59;4835814;29;20057;-65
2023/07/26 08:32:40;;;;;;;18.70;16.75;;;;;;;33.89;87.06;97824.63;4821276;29;20481;-64
2023/07/26 08:35:11;;;;;;;19.08;17.17;;;;;;;33.95;87.95;97823.13;4841174;29;20054;-64
2023/07/26 08:37:40;;;;;;;17.98;16.27;;;;;;;33.78;85.44;97807.16;4840501;29;20063;-64
2023/07/26 08:40:10;;;;;;;19.10;17.42;;;;;;;33.36;83.55;97804.41;4841494;29;20057;-64
2023/07/26 08:42:41;;;;;;;18.83;17.02;;;;;;;33.47;85.54;97802.66;4840302;29;20060;-64
2023/07/26 08:45:11;;;;;;;18.52;16.75;;;;;;;33.23;88.35;97798.28;4842247;29;20066;-65
2023/07/26 08:47:42;;;;;;;18.58;16.88;;;;;;;33.26;87.41;97786.56;4835619;29;20442;-66
2023/07/26 08:50:13;;;;;;;17.65;16.05;;;;;;;33.26;87.08;97785.78;4806832;29;20049;-65
2023/07/26 08:52:44;;;;;;;18.30;16.50;;;;;;;33.23;88.23;97781.81;4840322;29;20557;-65
2023/07/26 08:55:15;;;;;;;18.58;16.77;;;;;;;33.38;89.50;97783.66;4841694;29;20057;-64
2023/07/26 08:57:46;;;;;;;17.75;16.10;;;;;;;33.45;88.12;97777.53;4827916;29;20049;-65
2023/07/26 09:00:15;;;;;;;17.92;16.33;;;;;;;33.57;89.17;97777.34;4840979;29;20059;-64
2023/07/26 09:02:47;;;;;;;19.35;17.63;;;;;;;33.49;86.17;97774.81;4831636;29;20065;-65
2023/07/26 09:05:17;;;;;;;18.13;16.42;;;;;;;33.45;86.26;97774.78;4822499;29;20046;-64
2023/07/26 09:07:46;;;;;;;18.45;16.65;;;;;;;33.32;86.63;97765.13;4818250;29;20057;-64
2023/07/26 09:10:15;;;;;;;16.77;15.07;;;;;;;33.33;86.95;97763.94;4815540;29;20065;-64
2023/07/26 09:12:45;;;;;;;16.58;15.13;;;;;;;33.45;86.81;97755.56;4834163;29;20573;-64
2023/07/26 09:15:14;;;;;;;17.38;15.52;;;;;;;33.26;85.16;97747.34;4818227;29;20063;-65
2023/07/26 09:17:44;;;;;;;17.90;16.20;;;;;;;33.30;87.36;97749.00;4804863;29;20121;-65
2023/07/26 09:20:25;;;;;;;17.17;15.60;;;;;;;33.40;86.64;97742.91;4819175;29;20058;-65
2023/07/26 09:23:00;;;;;;;17.15;15.32;;;;;;;33.32;88.92;97743.16;4839495;29;21032;-66
2023/07/26 09:25:34;;;;;;;16.52;14.93;;;;;;;33.21;89.97;97747.66;4814118;29;20050;-66
2023/07/26 09:28:08;;;;;;;16.70;15.30;;;;;;;33.16;91.34;97740.50;4828890;29;20425;-66
2023/07/26 09:30:40;;;;;;;17.38;15.65;;;;;;;33.05;88.11;97744.19;4840874;29;20122;-66
2023/07/26 09:33:12;;;;;;;16.35;14.88;;;;;;;32.85;90.28;97755.16;4819769;29;20053;-64
2023/07/26 09:35:50;;;;;;;21.48;16.52;;;;;;;32.63;90.89;97750.38;4819455;29;20114;-66
2023/07/26 09:38:26;;;;;;;17.15;15.55;;;;;;;32.51;91.76;97739.53;4830786;29;20608;-66
2023/07/26 09:40:56;;;;;;;17.75;16.13;;;;;;;32.50;91.69;97735.19;4835258;29;20064;-66
2023/07/26 09:43:31;;;;;;;17.73;16.23;;;;;;;32.49;93.47;97728.91;4828848;29;20475;-66
2023/07/26 09:46:01;;;;;;;16.83;15.23;;;;;;;32.44;92.27;97723.72;4836977;29;20099;-66
2023/07/26 09:48:35;;;;;;;17.42;15.90;;;;;;;32.42;93.34;97717.81;4834980;29;20053;-66
2023/07/26 09:51:21;;;;;;;20.92;17.05;;;;;;;32.41;96.18;97710.72;4822541;29;20345;-66
2023/07/26 09:54:00;;;;;;;16.92;15.40;;;;;;;32.37;93.86;97700.84;4824826;29;20145;-65
2023/07/26 09:56:33;;;;;;;17.58;15.77;;;;;;;32.35;97.44;97714.91;4822114;29;20198;-66
2023/07/26 09:59:09;;;;;;;17.95;16.27;;;;;;;32.31;98.45;97713.25;4832681;29;20542;-65
2023/07/26 10:01:44;;;;;;;18.48;16.67;;;;;;;32.13;95.57;97706.59;4834058;29;20065;-65
2023/07/26 10:04:22;;;;;;;16.35;14.93;;;;;;;32.12;95.44;97705.00;4831509;29;20048;-65
2023/07/26 10:07:01;;;;;;;16.35;14.73;;;;;;;32.04;95.90;97701.28;4834329;29;20046;-65
2023/07/26 10:09:32;;;;;;;16.27;14.77;;;;;;;32.03;96.43;97692.28;4820876;29;20057;-65
2023/07/26 10:12:03;;;;;;;16.83;15.07;;;;;;;31.99;98.05;97674.16;4836100;29;20068;-66
2023/07/26 10:14:33;;;;;;;16.70;15.20;;;;;;;31.94;97.01;97664.28;4819531;29;20795;-65
2023/07/26 10:17:06;;;;;;;15.18;13.88;;;;;;;31.99;97.54;97674.16;4838640;29;20068;-65
2023/07/26 10:19:38;;;;;;;15.82;13.02;;;;;;;32.01;98.15;97677.31;4824204;29;20061;-65
2023/07/26 10:22:08;;;;;;;14.63;13.32;;;;;;;32.00;98.49;97676.53;4824375;29;20046;-66
2023/07/26 10:24:40;;;;;;;15.02;13.65;;;;;;;31.97;97.52;97690.16;4821124;29;20050;-66
2023/07/26 10:27:12;;;;;;;15.55;14.20;;;;;;;31.93;98.21;97675.56;4818002;29;21315;-66
2023/07/26 10:29:41;;;;;;;17.08;14.95;;;;;;;31.79;98.68;97675.25;4820729;29;20057;-66
2023/07/26 10:32:11;;;;;;;16.33;14.65;;;;;;;31.80;98.87;97663.94;4839541;29;20068;-65
2023/07/26 10:34:41;;;;;;;18.35;15.13;;;;;;;31.84;97.81;97653.06;4840525;29;20053;-66
2023/07/26 10:37:19;;;;;;;15.45;14.05;;;;;;;31.83;99.60;97651.47;4828620;29;20050;-66
2023/07/26 10:39:49;;;;;;;17.20;15.43;;;;;;;31.80;98.74;97646.72;4836079;29;20086;-66
2023/07/26 10:42:37;;;;;;;15.27;13.90;;;;;;;31.70;97.61;97634.38;4824098;29;20092;-67
2023/07/26 10:45:38;;;;;;;15.07;13.63;;;;;;;31.65;97.38;97640.13;4839715;29;20050;-65
2023/07/26 10:48:28;;;;;;;13.93;12.52;;;;;;;31.63;98.36;97635.00;4822357;29;20506;-65
2023/07/26 10:50:58;;;;;;;14.60;13.30;;;;;;;31.54;97.34;97647.25;4822727;29;20077;-67
2023/07/26 10:53:37;;;;;;;15.73;14.32;;;;;;;31.41;98.40;97654.78;4839838;29;20065;-65
2023/07/26 10:56:27;;;;;;;15.00;13.60;;;;;;;31.33;97.26;97657.69;4836848;29;20049;-65
2023/07/26 10:59:03;;;;;;;23.15;20.67;;;;;;;31.09;100.00;97653.97;4840538;29;20050;-65
2023/07/26 11:01:46;;;;;;;25.50;22.75;;;;;;;30.84;100.00;97657.97;4836504;29;20064;-65
2023/07/26 11:04:21;;;;;;;26.85;23.45;;;;;;;30.86;100.00;97671.28;4818554;29;20050;-66
2023/07/26 11:07:12;;;;;;;26.83;24.05;;;;;;;30.67;100.00;97659.06;4834067;29;20065;-66
2023/07/26 11:09:43;;;;;;;28.60;25.42;;;;;;;30.56;100.00;97662.66;4823331;29;20057;-68
2023/07/26 11:12:14;;;;;;;28.65;24.55;;;;;;;30.29;100.00;97672.41;4824993;29;20046;-65
2023/07/26 11:14:43;;;;;;;25.73;23.13;;;;;;;29.77;100.00;97672.38;4824299;29;20140;-66
2023/07/26 11:17:33;;;;;;;31.08;23.77;;;;;;;29.38;100.00;97677.38;4838727;29;20069;-65
2023/07/26 11:20:04;;;;;;;29.13;25.83;;;;;;;29.22;100.00;97679.13;4833392;29;20061;-68
2023/07/26 11:22:34;;;;;;;33.88;27.13;;;;;;;29.09;100.00;97668.53;4837792;29;20074;-65
2023/07/26 11:25:06;;;;;;;32.17;26.98;;;;;;;28.92;100.00;97659.41;4835067;29;20061;-68
2023/07/26 11:27:36;;;;;;;29.83;26.25;;;;;;;28.87;100.00;97661.56;4836116;29;20071;-65
2023/07/26 11:30:13;;;;;;;32.72;26.30;;;;;;;28.83;100.00;97666.88;4836762;29;20068;-65
2023/07/26 11:32:47;;;;;;;28.60;25.52;;;;;;;28.79;100.00;97679.59;4839132;29;20151;-66